KDTL/DTL METAR and TAF weather

Enter ICAO airport designator
Station Type Date Time Source
KDTL METAR 2020/03/29 20:35 UTC NOAA

KDTL 292035Z AUTO 32010KT 10SM CLR 09/M02 A2995 RMK AO2


Station Type Date Time Source
KDTL Decoded METAR 2020/03/29 20:35 UTC NOAA

Detroit Lakes, Detroit Lakes Airport-Wething Field, MN, United States (KDTL) 46-50N 095-53W
Mar 29, 2020 - 04:35 PM EDT / 2020.03.29 2035 UTC
Wind: from the NW (320 degrees) at 12 MPH (10 KT):0
Visibility: 10 mile(s):0
Sky conditions: clear
Temperature: 48 F (9 C)
Dew Point: 28 F (-2 C)
Relative Humidity: 45%
Pressure (altimeter): 29.95 in. Hg (1014 hPa)
ob: KDTL 292035Z AUTO 32010KT 10SM CLR 09/M02 A2995 RMK AO2
cycle: 20

Station Type Date Time Source
KDTL TAF UTC NOAA

Error!

Example: see airport list